Time;durP1;ratioP1;P1;durP2;ratioP2;P2;SDS_P1;SDS_P2;PMS_P1;PMS_P2;Temp;Humidity;BMP_temperature;BMP_pressure;BME280_temperature;BME280_humidity;BME280_pressure;Samples;Min_cycle;Max_cycle;Signal;HPM_P1;HPM_P2
2023/12/29 00:02:02;;;;;;;;;;;;;;;12.69;52.14;100332.94;4939413;28;99915;-63
2023/12/29 00:04:28;;;;;;;;;;;;;;;12.68;51.91;100334.81;4958200;28;98670;-63
2023/12/29 00:06:55;;;;;;;;;;;;;;;12.68;51.77;100332.13;4927246;28;98509;-63
2023/12/29 00:09:21;;;;;;;;;;;;;;;12.68;51.79;100326.72;4941389;28;98216;-64
2023/12/29 00:11:50;;;;;;;;;;;;;;;12.67;51.96;100316.19;4956498;28;99909;-63
2023/12/29 00:14:17;;;;;;;;;;;;;;;12.67;52.09;100321.59;4932891;28;99954;-63
2023/12/29 00:16:44;;;;;;;;;;;;;;;12.66;51.85;100318.09;4928861;28;98022;-64
2023/12/29 00:19:11;;;;;;;;;;;;;;;12.66;52.02;100311.88;4944681;28;98485;-63
2023/12/29 00:21:37;;;;;;;;;;;;;;;12.64;51.98;100309.44;4943145;28;99555;-63
2023/12/29 00:24:05;;;;;;;;;;;;;;;12.65;52.10;100308.34;4941924;28;98142;-63
2023/12/29 00:26:31;;;;;;;;;;;;;;;12.65;52.03;100304.84;4914429;28;97978;-63
2023/12/29 00:28:57;;;;;;;;;;;;;;;12.64;51.77;100301.34;4961712;28;99137;-64
2023/12/29 00:31:23;;;;;;;;;;;;;;;12.63;51.66;100305.13;4925658;28;98226;-65
2023/12/29 00:33:51;;;;;;;;;;;;;;;12.63;52.01;100305.13;4905118;28;107358;-64
2023/12/29 00:36:18;;;;;;;;;;;;;;;12.62;51.90;100295.41;4925749;28;98751;-64
2023/12/29 00:38:46;;;;;;;;;;;;;;;12.61;51.89;100288.38;4924381;28;97891;-63
2023/12/29 00:41:12;;;;;;;;;;;;;;;12.61;51.94;100287.56;4972160;28;101521;-64
2023/12/29 00:43:39;;;;;;;;;;;;;;;12.62;52.02;100291.91;4934300;28;119750;-65
2023/12/29 00:46:05;;;;;;;;;;;;;;;12.61;52.06;100282.16;4932315;28;100449;-64
2023/12/29 00:48:31;;;;;;;;;;;;;;;12.60;51.90;100281.34;4944610;28;98420;-65
2023/12/29 00:50:57;;;;;;;;;;;;;;;12.59;51.83;100285.16;4947490;28;98118;-63
2023/12/29 00:53:23;;;;;;;;;;;;;;;12.59;51.98;100287.88;4958148;28;98544;-63
2023/12/29 00:55:50;;;;;;;;;;;;;;;12.59;51.88;100284.34;4928808;28;99993;-63
2023/12/29 00:58:16;;;;;;;;;;;;;;;12.58;51.88;100280.84;4940213;28;98225;-63
2023/12/29 01:00:42;;;;;;;;;;;;;;;12.58;51.98;100282.75;4929434;28;98562;-63
2023/12/29 01:03:08;;;;;;;;;;;;;;;12.59;51.85;100281.66;4943896;28;98187;-65
2023/12/29 01:05:34;;;;;;;;;;;;;;;12.58;51.76;100285.47;4929153;28;99713;-64
2023/12/29 01:08:00;;;;;;;;;;;;;;;12.56;52.13;100276.81;4940800;28;127879;-64
2023/12/29 01:10:26;;;;;;;;;;;;;;;12.58;51.88;100280.06;4909816;28;98104;-63
2023/12/29 01:12:52;;;;;;;;;;;;;;;12.56;51.77;100277.63;4947676;28;98233;-65
2023/12/29 01:15:18;;;;;;;;;;;;;;;12.56;52.12;100280.31;4948165;28;99629;-64
2023/12/29 01:17:45;;;;;;;;;;;;;;;12.56;51.75;100276.81;4945511;28;98489;-63
2023/12/29 01:20:13;;;;;;;;;;;;;;;12.56;52.00;100279.53;4936955;28;98043;-63
2023/12/29 01:22:42;;;;;;;;;;;;;;;12.56;51.95;100282.22;4960909;28;98260;-63
2023/12/29 01:25:10;;;;;;;;;;;;;;;12.55;51.83;100276.00;4933333;28;100872;-63
2023/12/29 01:27:36;;;;;;;;;;;;;;;12.53;51.81;100268.16;4962714;28;99162;-63
2023/12/29 01:30:02;;;;;;;;;;;;;;;12.53;51.99;100268.16;4945814;28;100146;-63
2023/12/29 01:32:28;;;;;;;;;;;;;;;12.52;51.82;100271.97;4951530;28;98064;-64
2023/12/29 01:34:54;;;;;;;;;;;;;;;12.53;51.89;100272.78;4926898;28;129914;-64
2023/12/29 01:37:20;;;;;;;;;;;;;;;12.52;51.66;100276.56;4959216;28;98102;-64
2023/12/29 01:39:46;;;;;;;;;;;;;;;12.52;51.97;100271.97;4929337;28;99356;-63
2023/12/29 01:42:13;;;;;;;;;;;;;;;12.52;51.84;100265.75;4930556;28;98500;-63
2023/12/29 01:44:39;;;;;;;;;;;;;;;12.51;51.93;100272.25;4930606;28;98676;-65
2023/12/29 01:47:15;;;;;;;;;;;;;;;12.51;51.89;100269.56;4930338;28;128812;-63
2023/12/29 01:49:41;;;;;;;;;;;;;;;12.51;51.59;100264.97;4941573;28;98259;-65
2023/12/29 01:52:07;;;;;;;;;;;;;;;12.50;51.73;100263.34;4929162;28;99324;-63
2023/12/29 01:54:35;;;;;;;;;;;;;;;12.51;51.84;100256.03;4928442;28;98395;-63
2023/12/29 01:57:02;;;;;;;;;;;;;;;12.49;51.87;100250.91;4924258;28;97992;-63
2023/12/29 01:59:28;;;;;;;;;;;;;;;12.49;52.02;100250.91;4926513;28;98046;-63
2023/12/29 02:01:57;;;;;;;;;;;;;;;12.50;51.83;100249.84;4928539;28;98051;-64
2023/12/29 02:04:27;;;;;;;;;;;;;;;12.50;51.97;100240.91;4929301;28;102852;-63
2023/12/29 02:06:53;;;;;;;;;;;;;;;12.49;51.84;100234.69;4935921;28;98224;-63
2023/12/29 02:09:19;;;;;;;;;;;;;;;12.48;51.81;100227.66;4932374;28;98124;-63
2023/12/29 02:11:46;;;;;;;;;;;;;;;12.49;51.77;100228.47;4931607;28;98211;-63
2023/12/29 02:14:12;;;;;;;;;;;;;;;12.48;51.88;100226.88;4930769;28;99918;-63
2023/12/29 02:16:49;;;;;;;;;;;;;;;12.48;51.89;100230.38;4923319;28;99316;-64
2023/12/29 02:19:39;;;;;;;;;;;;;;;12.47;51.69;100223.38;4949037;28;98504;-64
2023/12/29 02:22:06;;;;;;;;;;;;;;;12.47;51.97;100217.97;4931905;28;98732;-63
2023/12/29 02:24:33;;;;;;;;;;;;;;;12.47;51.73;100217.16;4934645;28;99863;-64
2023/12/29 02:27:08;;;;;;;;;;;;;;;12.46;51.60;100219.06;4932254;28;99687;-64
2023/12/29 02:29:34;;;;;;;;;;;;;;;12.47;51.99;100222.56;4944824;28;99120;-64
2023/12/29 02:32:00;;;;;;;;;;;;;;;12.45;51.80;100213.91;4931201;28;114772;-63
2023/12/29 02:34:26;;;;;;;;;;;;;;;12.47;51.97;100222.56;4931185;28;98490;-63
2023/12/29 02:36:54;;;;;;;;;;;;;;;12.46;51.69;100218.25;4929593;28;98405;-63
2023/12/29 02:39:20;;;;;;;;;;;;;;;12.47;51.73;100219.84;4928159;28;98397;-63
2023/12/29 02:41:46;;;;;;;;;;;;;;;12.46;51.99;100223.66;4942911;28;98505;-64
2023/12/29 02:44:13;;;;;;;;;;;;;;;12.46;51.69;100218.25;4939591;28;127641;-63
2023/12/29 02:46:39;;;;;;;;;;;;;;;12.46;51.74;100237.19;4947472;28;98602;-64
2023/12/29 02:49:05;;;;;;;;;;;;;;;12.46;51.98;100223.66;4924600;28;98117;-63
2023/12/29 02:51:32;;;;;;;;;;;;;;;12.46;51.71;100220.97;4925939;28;98578;-65
2023/12/29 02:53:58;;;;;;;;;;;;;;;12.44;51.67;100221.22;4928867;28;98175;-64
2023/12/29 02:56:24;;;;;;;;;;;;;;;12.46;51.90;100218.25;4942489;28;98197;-63
2023/12/29 02:58:51;;;;;;;;;;;;;;;12.44;51.73;100207.72;4923211;28;98061;-63
2023/12/29 03:01:17;;;;;;;;;;;;;;;12.44;51.76;100202.31;4940589;28;98806;-65
2023/12/29 03:03:43;;;;;;;;;;;;;;;12.44;51.99;100194.19;4943182;28;127791;-63
2023/12/29 03:06:10;;;;;;;;;;;;;;;12.43;51.87;100183.69;4929348;28;98209;-63
2023/12/29 03:08:36;;;;;;;;;;;;;;;12.43;51.87;100192.59;4959804;28;98262;-63
2023/12/29 03:11:02;;;;;;;;;;;;;;;12.43;52.00;100199.91;4925882;28;100002;-64
2023/12/29 03:13:28;;;;;;;;;;;;;;;12.42;51.73;100188.28;4929974;28;104955;-64
2023/12/29 03:15:53;;;;;;;;;;;;;;;12.44;51.94;100185.28;4927605;28;112296;-64
2023/12/29 03:18:19;;;;;;;;;;;;;;;12.44;51.93;100177.16;4922278;28;115572;-64
2023/12/29 03:20:46;;;;;;;;;;;;;;;12.44;51.66;100179.88;4917442;28;106838;-63
2023/12/29 03:23:13;;;;;;;;;;;;;;;12.43;51.98;100168.25;4920720;28;99553;-63
2023/12/29 03:25:39;;;;;;;;;;;;;;;12.44;51.71;100172.56;4919304;28;98172;-63
2023/12/29 03:28:05;;;;;;;;;;;;;;;12.45;51.55;100178.78;4929052;28;98314;-63
2023/12/29 03:30:31;;;;;;;;;;;;;;;12.44;51.91;100177.97;4927384;28;100167;-64
2023/12/29 03:32:58;;;;;;;;;;;;;;;12.44;51.88;100177.97;4921239;28;98511;-63
2023/12/29 03:35:24;;;;;;;;;;;;;;;12.44;51.88;100177.97;4921654;28;100179;-64
2023/12/29 03:37:50;;;;;;;;;;;;;;;12.46;51.69;100172.31;4926415;28;98419;-63
2023/12/29 03:40:16;;;;;;;;;;;;;;;12.45;51.83;100163.34;4912021;28;99352;-63
2023/12/29 03:42:42;;;;;;;;;;;;;;;12.44;51.57;100153.66;4922728;28;97991;-64
2023/12/29 03:45:08;;;;;;;;;;;;;;;12.46;52.01;100143.38;4939766;28;98248;-65
2023/12/29 03:47:35;;;;;;;;;;;;;;;12.47;51.98;100138.75;4922341;28;109665;-64
2023/12/29 03:50:01;;;;;;;;;;;;;;;12.47;51.70;100131.44;4927818;28;98316;-65
2023/12/29 03:52:27;;;;;;;;;;;;;;;12.48;51.71;100124.16;4923819;28;116698;-65
2023/12/29 03:54:53;;;;;;;;;;;;;;;12.48;51.89;100119.53;4923669;28;127210;-65
2023/12/29 03:57:19;;;;;;;;;;;;;;;12.47;51.78;100123.34;4928718;28;98155;-65
2023/12/29 03:59:45;;;;;;;;;;;;;;;12.48;51.89;100121.44;4943230;28;130917;-64
2023/12/29 04:02:13;;;;;;;;;;;;;;;12.48;51.66;100116.03;4906696;28;99407;-64
2023/12/29 04:04:41;;;;;;;;;;;;;;;12.48;51.68;100116.84;4908766;28;98274;-64
2023/12/29 04:07:07;;;;;;;;;;;;;;;12.48;51.70;100107.94;4923583;28;97898;-65
2023/12/29 04:09:33;;;;;;;;;;;;;;;12.48;51.92;100106.03;4940714;28;98744;-64
2023/12/29 04:12:00;;;;;;;;;;;;;;;12.49;51.76;100098.72;4921291;28;98671;-64
2023/12/29 04:14:26;;;;;;;;;;;;;;;12.48;51.97;100097.91;4920915;28;97968;-65
2023/12/29 04:16:52;;;;;;;;;;;;;;;12.48;51.90;100100.63;4941655;27;98105;-65
2023/12/29 04:19:18;;;;;;;;;;;;;;;12.50;51.57;100100.34;4945104;28;123247;-63
2023/12/29 04:21:44;;;;;;;;;;;;;;;12.50;51.96;100092.22;4906082;28;100593;-66
2023/12/29 04:24:10;;;;;;;;;;;;;;;12.51;51.90;100088.44;4947626;28;99278;-63
2023/12/29 04:26:37;;;;;;;;;;;;;;;12.51;51.91;100101.94;4932375;28;99250;-65
2023/12/29 04:29:03;;;;;;;;;;;;;;;12.51;51.73;100105.44;4931757;28;98332;-63
2023/12/29 04:31:30;;;;;;;;;;;;;;;12.51;51.90;100105.44;4931220;28;98279;-64
2023/12/29 04:33:56;;;;;;;;;;;;;;;12.52;51.71;100106.25;4925255;28;98850;-63
2023/12/29 04:36:22;;;;;;;;;;;;;;;12.52;51.62;100101.66;4928366;28;99710;-64
2023/12/29 04:38:48;;;;;;;;;;;;;;;12.53;51.65;100107.84;4946318;28;98160;-65
2023/12/29 04:41:14;;;;;;;;;;;;;;;12.53;51.65;100099.75;4910490;28;122117;-64
2023/12/29 04:43:41;;;;;;;;;;;;;;;12.52;51.93;100090.84;4945445;28;98341;-64
2023/12/29 04:46:07;;;;;;;;;;;;;;;12.53;52.03;100092.44;4930574;28;97950;-63
2023/12/29 04:48:33;;;;;;;;;;;;;;;12.53;51.68;100103.25;4958172;28;100495;-65
2023/12/29 04:50:59;;;;;;;;;;;;;;;12.54;51.95;100106.78;4961645;28;124977;-65
2023/12/29 04:53:25;;;;;;;;;;;;;;;12.55;51.64;100104.88;4942578;28;106305;-65
2023/12/29 04:55:51;;;;;;;;;;;;;;;12.55;51.67;100091.38;4927692;28;121583;-65
2023/12/29 04:58:19;;;;;;;;;;;;;;;12.54;51.68;100093.25;4926410;28;105290;-63
2023/12/29 05:00:45;;;;;;;;;;;;;;;12.55;51.68;100085.97;4938135;28;97963;-64
2023/12/29 05:03:11;;;;;;;;;;;;;;;12.55;51.58;100086.75;4928751;28;99417;-65
2023/12/29 05:05:38;;;;;;;;;;;;;;;12.56;51.68;100087.56;4926418;28;98630;-64
2023/12/29 05:08:05;;;;;;;;;;;;;;;12.56;51.73;100088.34;4907009;28;98100;-64
2023/12/29 05:10:34;;;;;;;;;;;;;;;12.55;51.60;100084.06;4945233;28;99541;-63
2023/12/29 05:13:00;;;;;;;;;;;;;;;12.56;51.76;100091.06;4938144;28;98290;-65
2023/12/29 05:15:26;;;;;;;;;;;;;;;12.56;51.69;100101.88;4933562;28;101443;-64
2023/12/29 05:17:52;;;;;;;;;;;;;;;12.57;51.84;100108.09;4927699;28;98163;-65
2023/12/29 05:20:19;;;;;;;;;;;;;;;12.57;51.87;100116.19;4907606;28;102884;-64
2023/12/29 05:22:46;;;;;;;;;;;;;;;12.57;51.64;100095.38;4934077;28;98086;-65
2023/12/29 05:25:12;;;;;;;;;;;;;;;12.57;51.73;100106.19;4926459;28;99248;-65
2023/12/29 05:27:38;;;;;;;;;;;;;;;12.57;51.70;100105.38;4953237;28;127716;-65
2023/12/29 05:30:04;;;;;;;;;;;;;;;12.57;51.98;100110.78;4921117;28;100077;-65
2023/12/29 05:32:30;;;;;;;;;;;;;;;12.57;51.66;100111.59;4936996;28;119677;-64
2023/12/29 05:34:57;;;;;;;;;;;;;;;12.58;51.83;100110.53;4955835;28;98465;-63
2023/12/29 05:37:23;;;;;;;;;;;;;;;12.59;51.65;100111.31;4929417;28;98244;-65
2023/12/29 05:39:49;;;;;;;;;;;;;;;12.57;52.02;100106.19;4925799;28;128309;-65
2023/12/29 05:42:15;;;;;;;;;;;;;;;12.59;51.98;100108.63;4940675;28;98938;-65
2023/12/29 05:44:41;;;;;;;;;;;;;;;12.58;51.85;100115.94;4922091;28;119330;-64
2023/12/29 05:47:07;;;;;;;;;;;;;;;12.58;51.90;100107.00;4954780;28;98037;-64
2023/12/29 05:49:37;;;;;;;;;;;;;;;12.58;51.59;100102.41;4929726;28;98240;-64
2023/12/29 05:52:07;;;;;;;;;;;;;;;12.58;51.85;100094.28;4931257;28;98118;-64
2023/12/29 05:54:34;;;;;;;;;;;;;;;12.58;52.08;100104.31;4943766;28;98029;-65
2023/12/29 05:57:00;;;;;;;;;;;;;;;12.59;51.93;100097.81;4946423;28;98437;-66
2023/12/29 05:59:26;;;;;;;;;;;;;;;12.59;51.92;100105.91;4939558;28;99351;-65
2023/12/29 06:01:52;;;;;;;;;;;;;;;12.59;51.68;100105.91;4930496;28;98039;-65
2023/12/29 06:04:18;;;;;;;;;;;;;;;12.59;51.89;100112.13;4956496;28;98425;-65
2023/12/29 06:06:45;;;;;;;;;;;;;;;12.58;51.68;100110.53;4939772;28;129158;-65
2023/12/29 06:09:11;;;;;;;;;;;;;;;12.60;51.79;100107.50;4945883;28;98077;-65
2023/12/29 06:11:37;;;;;;;;;;;;;;;12.58;51.68;100097.00;4939021;28;108264;-64
2023/12/29 06:14:04;;;;;;;;;;;;;;;12.60;51.50;100096.69;4933408;28;98472;-64
2023/12/29 06:16:30;;;;;;;;;;;;;;;12.59;51.78;100092.41;4942136;28;98806;-65
2023/12/29 06:18:56;;;;;;;;;;;;;;;12.59;51.75;100090.50;4947785;28;98296;-64
2023/12/29 06:21:22;;;;;;;;;;;;;;;12.60;51.97;100083.19;4946957;28;98006;-66
2023/12/29 06:23:49;;;;;;;;;;;;;;;12.60;51.58;100081.28;4933894;28;97991;-66
2023/12/29 06:26:17;;;;;;;;;;;;;;;12.60;51.77;100077.78;4943808;28;98243;-65
2023/12/29 06:28:44;;;;;;;;;;;;;;;12.60;51.88;100085.88;4926222;28;99268;-64
2023/12/29 06:31:10;;;;;;;;;;;;;;;12.60;51.58;100085.88;4923068;28;98218;-64
2023/12/29 06:33:37;;;;;;;;;;;;;;;12.61;51.70;100087.47;4927012;28;98516;-64
2023/12/29 06:36:03;;;;;;;;;;;;;;;12.61;51.64;100084.78;4926200;28;98123;-66
2023/12/29 06:38:29;;;;;;;;;;;;;;;12.61;51.63;100082.06;4938826;28;111639;-64
2023/12/29 06:40:56;;;;;;;;;;;;;;;12.60;51.85;100077.78;4956926;28;98652;-64
2023/12/29 06:43:22;;;;;;;;;;;;;;;12.60;51.82;100078.56;4949942;28;98297;-64
2023/12/29 06:45:48;;;;;;;;;;;;;;;12.61;51.65;100076.66;4923993;28;127292;-65
2023/12/29 06:48:14;;;;;;;;;;;;;;;12.60;51.58;100081.28;4932208;28;121361;-65
2023/12/29 06:50:40;;;;;;;;;;;;;;;12.61;51.90;100080.19;4954852;28;108644;-64
2023/12/29 06:53:06;;;;;;;;;;;;;;;12.62;51.95;100081.00;4941015;28;98124;-65
2023/12/29 06:55:32;;;;;;;;;;;;;;;12.61;51.86;100077.47;4926377;28;110039;-64
2023/12/29 06:57:58;;;;;;;;;;;;;;;12.64;51.60;100086.91;4925030;28;98523;-64
2023/12/29 07:00:24;;;;;;;;;;;;;;;12.62;51.78;100084.50;4924010;28;102774;-65
2023/12/29 07:02:50;;;;;;;;;;;;;;;12.63;51.59;100094.22;4943844;28;98085;-64
2023/12/29 07:05:16;;;;;;;;;;;;;;;12.63;51.81;100088.81;4957093;28;97909;-65
2023/12/29 07:07:42;;;;;;;;;;;;;;;12.63;51.89;100088.81;4923261;28;98930;-65
2023/12/29 07:10:09;;;;;;;;;;;;;;;12.63;51.86;100094.22;4926168;28;99498;-65
2023/12/29 07:12:34;;;;;;;;;;;;;;;12.65;51.91;100099.31;4925900;28;98109;-65
2023/12/29 07:15:00;;;;;;;;;;;;;;;12.65;51.71;100097.44;4934171;28;128654;-65
2023/12/29 07:17:27;;;;;;;;;;;;;;;12.67;51.67;100097.97;4925275;28;128123;-65
2023/12/29 07:19:52;;;;;;;;;;;;;;;12.68;51.51;100090.66;4933600;28;110326;-65
2023/12/29 07:22:19;;;;;;;;;;;;;;;12.69;51.77;100093.06;4941123;28;98461;-66
2023/12/29 07:24:45;;;;;;;;;;;;;;;12.71;51.72;100090.06;4917646;28;99428;-64
2023/12/29 07:27:11;;;;;;;;;;;;;;;12.72;51.76;100081.66;4921043;28;98508;-64
2023/12/29 07:29:37;;;;;;;;;;;;;;;12.74;51.88;100095.72;4951182;28;98254;-65
2023/12/29 07:32:04;;;;;;;;;;;;;;;12.76;51.62;100098.91;4940275;28;101835;-63
2023/12/29 07:34:31;;;;;;;;;;;;;;;12.80;51.48;100095.63;4940797;28;98266;-65
2023/12/29 07:36:58;;;;;;;;;;;;;;;12.83;51.49;100095.06;4925850;28;98562;-65
2023/12/29 07:39:24;;;;;;;;;;;;;;;12.86;51.71;100102.59;4937569;28;98274;-64
2023/12/29 07:41:53;;;;;;;;;;;;;;;12.90;51.53;100111.75;4919133;28;98402;-65
2023/12/29 07:44:19;;;;;;;;;;;;;;;12.93;51.65;100111.97;4920338;28;100023;-64
2023/12/29 07:46:45;;;;;;;;;;;;;;;12.97;51.34;100113.00;4918887;28;98186;-65
2023/12/29 07:49:11;;;;;;;;;;;;;;;13.02;51.27;100115.63;4921861;28;99288;-64
2023/12/29 07:51:41;;;;;;;;;;;;;;;13.07;51.66;100116.63;4924927;28;98227;-64
2023/12/29 07:54:08;;;;;;;;;;;;;;;13.09;51.63;100114.47;4954308;28;100184;-65
2023/12/29 07:56:34;;;;;;;;;;;;;;;13.13;51.35;100123.59;4925182;28;98543;-65
2023/12/29 07:59:01;;;;;;;;;;;;;;;13.17;51.50;100117.31;4925262;28;98936;-63
2023/12/29 08:01:27;;;;;;;;;;;;;;;13.22;51.63;100121.84;4940272;28;102848;-64
2023/12/29 08:03:53;;;;;;;;;;;;;;;13.27;51.60;100122.59;4930987;28;98001;-65
2023/12/29 08:06:19;;;;;;;;;;;;;;;13.34;51.53;100124.13;4940318;28;98181;-63
2023/12/29 08:08:45;;;;;;;;;;;;;;;13.39;51.18;100111.31;4957632;28;98122;-65
2023/12/29 08:11:21;;;;;;;;;;;;;;;13.47;51.17;100112.53;4930307;28;102549;-63
2023/12/29 08:13:51;;;;;;;;;;;;;;;13.57;51.06;100106.97;4945567;28;99089;-65
2023/12/29 08:16:20;;;;;;;;;;;;;;;13.72;50.87;100122.19;4941215;28;98417;-63
2023/12/29 08:18:48;;;;;;;;;;;;;;;13.80;51.31;100113.38;4901785;28;98149;-63
2023/12/29 08:21:21;;;;;;;;;;;;;;;13.82;50.86;100130.13;4923248;28;98513;-64
2023/12/29 08:23:48;;;;;;;;;;;;;;;13.90;51.16;100115.91;4921030;28;99941;-64
2023/12/29 08:26:14;;;;;;;;;;;;;;;14.03;51.15;100119.75;4940772;28;100036;-63
2023/12/29 08:28:40;;;;;;;;;;;;;;;14.16;50.75;100110.84;4907529;28;98170;-65
2023/12/29 08:31:08;;;;;;;;;;;;;;;14.22;51.06;100122.38;4945931;28;97913;-64
2023/12/29 08:33:34;;;;;;;;;;;;;;;14.20;51.06;100113.75;4934008;28;98446;-65
2023/12/29 08:36:01;;;;;;;;;;;;;;;14.21;50.85;100109.94;4950624;28;98525;-64
2023/12/29 08:38:28;;;;;;;;;;;;;;;14.28;51.11;100099.50;4919382;28;98118;-64
2023/12/29 08:40:56;;;;;;;;;;;;;;;14.38;50.83;100087.63;4919556;28;98459;-64
2023/12/29 08:43:22;;;;;;;;;;;;;;;14.41;51.17;100085.13;4925642;28;98802;-64
2023/12/29 08:45:50;;;;;;;;;;;;;;;14.48;50.74;100065.75;4936243;28;98329;-64
2023/12/29 08:48:17;;;;;;;;;;;;;;;14.55;50.97;100078.94;4898300;28;100725;-65
2023/12/29 08:50:43;;;;;;;;;;;;;;;14.62;51.03;100084.75;4924026;28;98564;-64
2023/12/29 08:53:10;;;;;;;;;;;;;;;14.73;51.13;100089.66;4935895;28;101387;-65
2023/12/29 08:55:35;;;;;;;;;;;;;;;14.90;50.72;100096.38;4923328;28;97845;-64
2023/12/29 08:58:02;;;;;;;;;;;;;;;15.11;50.46;100094.81;4919329;28;98119;-64
2023/12/29 09:00:31;;;;;;;;;;;;;;;15.31;50.33;100088.09;4919057;28;98177;-65
2023/12/29 09:02:57;;;;;;;;;;;;;;;15.50;50.33;100096.06;4938729;28;98126;-65
2023/12/29 09:05:23;;;;;;;;;;;;;;;15.66;50.22;100099.25;4954979;28;111425;-65
2023/12/29 09:07:49;;;;;;;;;;;;;;;15.82;50.34;100108.59;4923166;28;109021;-65
2023/12/29 09:10:15;;;;;;;;;;;;;;;16.10;49.97;100103.81;4921915;28;98113;-65
2023/12/29 09:12:41;;;;;;;;;;;;;;;16.25;49.96;100115.38;4943910;28;98597;-64
2023/12/29 09:15:08;;;;;;;;;;;;;;;16.05;50.25;100105.88;4909667;28;99147;-64
2023/12/29 09:17:34;;;;;;;;;;;;;;;15.90;50.66;100112.50;4944280;28;98208;-65
2023/12/29 09:20:00;;;;;;;;;;;;;;;15.83;50.58;100112.91;4942114;28;98048;-65
2023/12/29 09:22:26;;;;;;;;;;;;;;;15.80;50.83;100115.47;4909439;28;98966;-65
2023/12/29 09:24:53;;;;;;;;;;;;;;;16.13;50.39;100119.50;4957252;28;106789;-65
2023/12/29 09:27:19;;;;;;;;;;;;;;;16.52;50.03;100119.81;4922642;28;106321;-66
2023/12/29 09:29:45;;;;;;;;;;;;;;;16.67;49.93;100128.34;4916994;28;98519;-64
2023/12/29 09:32:11;;;;;;;;;;;;;;;16.58;50.36;100129.44;4944263;28;98281;-65
2023/12/29 09:34:37;;;;;;;;;;;;;;;16.45;50.50;100133.88;4954303;28;98824;-64
2023/12/29 09:37:04;;;;;;;;;;;;;;;16.38;50.32;100133.50;4955809;28;111245;-64
2023/12/29 09:39:31;;;;;;;;;;;;;;;16.34;50.58;100127.91;4926290;28;98164;-64
2023/12/29 09:42:00;;;;;;;;;;;;;;;16.26;50.69;100125.16;4952859;28;100265;-65
2023/12/29 09:44:28;;;;;;;;;;;;;;;16.16;50.88;100135.19;4951516;28;99963;-64
2023/12/29 09:46:54;;;;;;;;;;;;;;;16.04;51.02;100136.88;4924728;28;98275;-63
2023/12/29 09:49:20;;;;;;;;;;;;;;;15.91;51.00;100130.41;4902507;28;101401;-65
2023/12/29 09:51:46;;;;;;;;;;;;;;;15.82;51.09;100124.13;4923531;28;99592;-63
2023/12/29 09:54:13;;;;;;;;;;;;;;;15.75;51.12;100126.47;4940833;28;102018;-65
2023/12/29 09:56:39;;;;;;;;;;;;;;;15.67;51.28;100115.22;4922915;28;102686;-64
2023/12/29 09:59:05;;;;;;;;;;;;;;;15.62;51.28;100119.97;4925023;28;98204;-65
2023/12/29 10:01:31;;;;;;;;;;;;;;;15.64;51.30;100109.56;4909302;28;98950;-65
2023/12/29 10:03:57;;;;;;;;;;;;;;;15.60;51.09;100103.97;4907277;28;109441;-65
2023/12/29 10:06:26;;;;;;;;;;;;;;;15.59;51.10;100104.28;4920225;28;98642;-64
2023/12/29 10:08:54;;;;;;;;;;;;;;;15.54;51.29;100107.91;4952191;28;98182;-65
2023/12/29 10:11:21;;;;;;;;;;;;;;;15.52;51.10;100125.63;4922564;28;98489;-64
2023/12/29 10:13:49;;;;;;;;;;;;;;;15.47;51.22;100130.06;4925858;28;98627;-65
2023/12/29 10:16:40;;;;;;;;;;;;;;;15.46;51.32;100141.25;4916712;28;107554;-65
2023/12/29 10:19:11;;;;;;;;;;;;;;;15.43;51.39;100131.78;4921983;28;98471;-65
2023/12/29 10:22:02;;;;;;;;;;;;;;;15.45;51.22;100126.06;4941797;28;98154;-65
2023/12/29 10:24:28;;;;;;;;;;;;;;;15.41;51.25;100133.22;4935205;28;98194;-65
2023/12/29 10:26:54;;;;;;;;;;;;;;;15.39;51.37;100128.09;4938785;28;98591;-64
2023/12/29 10:29:21;;;;;;;;;;;;;;;15.39;51.15;100124.56;4961243;28;98613;-65
2023/12/29 10:31:47;;;;;;;;;;;;;;;15.38;51.25;100126.50;4937518;28;98543;-64
2023/12/29 10:34:31;;;;;;;;;;;;;;;15.39;51.12;100117.22;4939387;28;98351;-63
2023/12/29 10:37:03;;;;;;;;;;;;;;;15.40;51.19;100135.13;4927772;28;99391;-65
2023/12/29 10:39:29;;;;;;;;;;;;;;;15.38;51.33;100133.84;4938937;28;98464;-65
2023/12/29 10:42:09;;;;;;;;;;;;;;;15.37;51.36;100129.53;4951801;28;98422;-65
2023/12/29 10:44:35;;;;;;;;;;;;;;;15.32;51.21;100127.72;4956140;28;100252;-65
2023/12/29 10:47:11;;;;;;;;;;;;;;;15.37;51.36;100129.53;4925567;28;98141;-65
2023/12/29 10:49:38;;;;;;;;;;;;;;;15.37;51.21;100121.38;4949247;28;98261;-65
2023/12/29 10:52:16;;;;;;;;;;;;;;;15.34;51.34;100128.22;4938637;28;104780;-65
2023/12/29 10:54:45;;;;;;;;;;;;;;;15.33;51.35;100118.47;4924084;28;97925;-63
2023/12/29 10:57:14;;;;;;;;;;;;;;;15.35;51.21;100113.53;4922004;28;106449;-63
2023/12/29 10:59:40;;;;;;;;;;;;;;;15.38;51.27;100114.84;4921287;28;98235;-64
2023/12/29 11:02:08;;;;;;;;;;;;;;;15.41;51.09;100115.03;4920831;28;99617;-65
2023/12/29 11:04:34;;;;;;;;;;;;;;;15.45;51.18;100118.72;4924843;28;98424;-65
2023/12/29 11:07:00;;;;;;;;;;;;;;;15.48;51.14;100117.28;4951240;28;98205;-65
2023/12/29 11:09:30;;;;;;;;;;;;;;;15.56;51.11;100123.91;4945671;28;105363;-65
2023/12/29 11:12:01;;;;;;;;;;;;;;;15.59;50.83;100118.66;4942623;28;98515;-64
2023/12/29 11:14:28;;;;;;;;;;;;;;;15.63;51.09;100116.13;4936055;28;98343;-65
2023/12/29 11:17:00;;;;;;;;;;;;;;;15.65;51.10;100128.31;4900043;28;98359;-65
2023/12/29 11:19:26;;;;;;;;;;;;;;;15.73;51.02;100120.56;4921514;28;98259;-65
2023/12/29 11:21:56;;;;;;;;;;;;;;;15.76;50.89;100123.44;4955416;28;98379;-63
2023/12/29 11:24:23;;;;;;;;;;;;;;;15.74;50.90;100122.16;4927302;28;98975;-63
2023/12/29 11:26:50;;;;;;;;;;;;;;;15.70;51.21;100120.03;4924381;28;117156;-63
2023/12/29 11:29:17;;;;;;;;;;;;;;;15.68;51.03;100119.56;4953760;28;98795;-65
2023/12/29 11:31:43;;;;;;;;;;;;;;;15.68;51.06;100111.41;4942822;28;100133;-64
2023/12/29 11:34:30;;;;;;;;;;;;;;;15.70;50.96;100109.19;4925175;28;98290;-63
2023/12/29 11:37:21;;;;;;;;;;;;;;;15.75;50.94;100102.00;4947703;28;103430;-65
2023/12/29 11:40:09;;;;;;;;;;;;;;;15.82;50.92;100103.19;4942488;28;98299;-65
2023/12/29 11:42:37;;;;;;;;;;;;;;;15.88;50.91;100099.22;4958754;28;98511;-65
2023/12/29 11:45:28;;;;;;;;;;;;;;;15.93;51.07;100087.41;4925997;28;98402;-64
2023/12/29 11:47:56;;;;;;;;;;;;;;;15.97;50.89;100082.16;4958497;28;98136;-64
2023/12/29 11:50:36;;;;;;;;;;;;;;;16.02;50.93;100084.72;4952713;28;98253;-63
2023/12/29 11:53:03;;;;;;;;;;;;;;;16.00;50.96;100082.34;4942986;28;98444;-65
2023/12/29 11:55:30;;;;;;;;;;;;;;;15.98;50.92;100089.19;4923306;28;112107;-65
2023/12/29 11:57:57;;;;;;;;;;;;;;;16.05;50.85;100079.47;4928301;28;98388;-63
2023/12/29 12:00:43;;;;;;;;;;;;;;;16.12;50.87;100066.25;4927136;28;99874;-64
2023/12/29 12:03:26;;;;;;;;;;;;;;;16.17;50.80;100068.00;4923403;28;99517;-65
2023/12/29 12:05:54;;;;;;;;;;;;;;;16.20;50.86;100068.19;4946350;28;99724;-65
2023/12/29 12:08:37;;;;;;;;;;;;;;;16.24;50.82;100073.00;4923246;28;97998;-65
2023/12/29 12:11:28;;;;;;;;;;;;;;;16.25;50.83;100067.25;4916641;28;98076;-65
2023/12/29 12:13:54;;;;;;;;;;;;;;;16.16;51.00;100059.06;4957464;28;98010;-63
2023/12/29 12:16:42;;;;;;;;;;;;;;;16.11;51.01;100048.34;4922872;28;98027;-65
2023/12/29 12:19:08;;;;;;;;;;;;;;;16.06;51.08;100058.53;4938071;28;98491;-65
2023/12/29 12:21:34;;;;;;;;;;;;;;;16.03;51.03;100051.00;4926289;28;98284;-65
2023/12/29 12:24:00;;;;;;;;;;;;;;;15.98;51.10;100051.94;4952973;28;113089;-65
2023/12/29 12:26:26;;;;;;;;;;;;;;;15.92;51.30;100051.28;4934866;28;98463;-65
2023/12/29 12:28:53;;;;;;;;;;;;;;;15.91;51.04;100052.38;4937231;28;99095;-63
2023/12/29 12:31:19;;;;;;;;;;;;;;;15.92;51.28;100053.19;4940904;28;98401;-65
2023/12/29 12:33:56;;;;;;;;;;;;;;;15.91;51.21;100038.78;4937233;28;98599;-65
2023/12/29 12:36:22;;;;;;;;;;;;;;;15.94;51.12;100037.38;4925089;28;99201;-63